Time;durP1;ratioP1;P1;durP2;ratioP2;P2;SDS_P1;SDS_P2;PMS_P1;PMS_P2;Temp;Humidity;BMP_temperature;BMP_pressure;BME280_temperature;BME280_humidity;BME280_pressure;Samples;Min_cycle;Max_cycle;Signal;HPM_P1;HPM_P2
2024/04/19 00:01:00;;;;;;;;;0.00;0.00;;;;;;;;5483182;26;8831;-73
2024/04/19 00:03:25;;;;;;;;;0.75;0.75;;;;;;;;5483287;26;8839;-74
2024/04/19 00:05:50;;;;;;;;;1.00;0.00;;;;;;;;5483504;26;8874;-74
2024/04/19 00:08:15;;;;;;;;;0.75;0.00;;;;;;;;5482826;26;8812;-73
2024/04/19 00:10:41;;;;;;;;;1.00;1.00;;;;;;;;5480783;26;9619;-73
2024/04/19 00:13:06;;;;;;;;;0.00;0.00;;;;;;;;5483162;26;9184;-73
2024/04/19 00:15:31;;;;;;;;;1.00;1.00;;;;;;;;5483184;26;9523;-73
2024/04/19 00:17:56;;;;;;;;;1.00;1.00;;;;;;;;5482690;26;8889;-72
2024/04/19 00:20:22;;;;;;;;;1.00;0.00;;;;;;;;5482874;26;9525;-72
2024/04/19 00:22:47;;;;;;;;;1.00;0.00;;;;;;;;5482718;26;8819;-72
2024/04/19 00:25:13;;;;;;;;;0.00;0.00;;;;;;;;5482616;26;9595;-73
2024/04/19 00:27:38;;;;;;;;;0.00;0.00;;;;;;;;5480491;26;8831;-72
2024/04/19 00:30:03;;;;;;;;;0.75;0.00;;;;;;;;5482514;26;8858;-73
2024/04/19 00:32:29;;;;;;;;;1.00;1.00;;;;;;;;5482323;26;8886;-74
2024/04/19 00:34:54;;;;;;;;;2.00;1.00;;;;;;;;5482435;26;8916;-73
2024/04/19 00:37:20;;;;;;;;;0.00;0.00;;;;;;;;5482517;26;8855;-73
2024/04/19 00:39:45;;;;;;;;;0.50;0.50;;;;;;;;5480100;26;8842;-73
2024/04/19 00:42:10;;;;;;;;;2.00;0.00;;;;;;;;5480436;26;8808;-74
2024/04/19 00:44:36;;;;;;;;;0.50;0.50;;;;;;;;5485723;26;8844;-73
2024/04/19 00:47:02;;;;;;;;;1.00;1.00;;;;;;;;5485554;26;9016;-74
2024/04/19 00:49:28;;;;;;;;;1.00;1.00;;;;;;;;5485399;26;8836;-74
2024/04/19 00:51:54;;;;;;;;;1.00;0.00;;;;;;;;5485610;26;11582;-74
2024/04/19 00:54:19;;;;;;;;;1.00;1.00;;;;;;;;5485635;26;8800;-75
2024/04/19 00:56:46;;;;;;;;;0.00;0.00;;;;;;;;5484987;26;11612;-75
2024/04/19 00:59:11;;;;;;;;;1.75;1.00;;;;;;;;5483363;26;8872;-74
2024/04/19 01:01:37;;;;;;;;;1.00;1.00;;;;;;;;5485130;26;11523;-74
2024/04/19 01:04:03;;;;;;;;;1.00;1.00;;;;;;;;5485819;26;8796;-74
2024/04/19 01:06:28;;;;;;;;;1.00;1.00;;;;;;;;5485419;26;9540;-74
2024/04/19 01:08:54;;;;;;;;;2.00;2.00;;;;;;;;5485955;26;8824;-73
2024/04/19 01:11:19;;;;;;;;;1.00;1.00;;;;;;;;5485922;26;8804;-74
2024/04/19 01:13:45;;;;;;;;;1.25;1.25;;;;;;;;5485700;26;8816;-74
2024/04/19 01:16:10;;;;;;;;;1.00;1.00;;;;;;;;5485309;26;8839;-74
2024/04/19 01:18:36;;;;;;;;;1.75;1.75;;;;;;;;5483084;26;8854;-74
2024/04/19 01:21:02;;;;;;;;;2.00;2.00;;;;;;;;5483151;26;9582;-75
2024/04/19 01:23:28;;;;;;;;;1.00;1.00;;;;;;;;5485396;26;11513;-75
2024/04/19 01:25:56;;;;;;;;;2.00;1.00;;;;;;;;5483500;26;8847;-73
2024/04/19 01:28:21;;;;;;;;;1.00;1.00;;;;;;;;5485359;26;9526;-74
2024/04/19 01:30:46;;;;;;;;;1.00;1.00;;;;;;;;5484962;26;11559;-75
2024/04/19 01:33:12;;;;;;;;;2.00;2.00;;;;;;;;5485510;26;8916;-74
2024/04/19 01:35:37;;;;;;;;;3.50;2.00;;;;;;;;5483450;26;8851;-76
2024/04/19 01:38:03;;;;;;;;;1.00;1.00;;;;;;;;5485448;26;8820;-74
2024/04/19 01:40:28;;;;;;;;;2.25;2.00;;;;;;;;5484451;26;8926;-73
2024/04/19 01:42:54;;;;;;;;;2.00;2.00;;;;;;;;5485088;26;8865;-74
2024/04/19 01:45:19;;;;;;;;;3.00;2.00;;;;;;;;5484613;26;8854;-73
2024/04/19 01:47:45;;;;;;;;;2.50;2.00;;;;;;;;5484831;26;8808;-73
2024/04/19 01:50:10;;;;;;;;;2.00;2.00;;;;;;;;5484609;26;8854;-73
2024/04/19 01:52:35;;;;;;;;;2.00;2.00;;;;;;;;5485163;26;8846;-73
2024/04/19 01:55:01;;;;;;;;;2.75;2.75;;;;;;;;5484681;26;8911;-73
2024/04/19 01:57:26;;;;;;;;;1.50;1.50;;;;;;;;5484958;26;8839;-73
2024/04/19 01:59:51;;;;;;;;;4.00;4.00;;;;;;;;5483083;26;8855;-74
2024/04/19 02:02:17;;;;;;;;;3.25;3.25;;;;;;;;5484912;26;8831;-73
2024/04/19 02:04:42;;;;;;;;;3.00;3.00;;;;;;;;5482482;26;8863;-73
2024/04/19 02:07:07;;;;;;;;;4.00;2.00;;;;;;;;5485296;26;8828;-74
2024/04/19 02:09:34;;;;;;;;;2.00;2.00;;;;;;;;5485107;26;8804;-73
2024/04/19 02:11:59;;;;;;;;;4.00;4.00;;;;;;;;5485122;26;8820;-73
2024/04/19 02:14:25;;;;;;;;;2.50;2.50;;;;;;;;5484624;26;11515;-72
2024/04/19 02:16:50;;;;;;;;;6.50;2.00;;;;;;;;5485086;26;8847;-74
2024/04/19 02:19:16;;;;;;;;;3.00;3.00;;;;;;;;5485272;26;8879;-74
2024/04/19 02:21:41;;;;;;;;;2.00;2.00;;;;;;;;5482926;26;8858;-74
2024/04/19 02:24:08;;;;;;;;;2.00;2.00;;;;;;;;5484422;26;8823;-73
2024/04/19 02:26:34;;;;;;;;;2.00;2.00;;;;;;;;5483977;26;8841;-73
2024/04/19 02:31:43;;;;;;;;;3.75;2.00;;;;;;;;5484994;26;11494;-73
2024/04/19 02:34:09;;;;;;;;;3.75;3.00;;;;;;;;5484515;26;11647;-73
2024/04/19 02:36:34;;;;;;;;;3.50;3.25;;;;;;;;5483687;26;8840;-73
2024/04/19 02:38:59;;;;;;;;;3.25;3.25;;;;;;;;5483625;26;8857;-74
2024/04/19 02:41:24;;;;;;;;;4.50;4.25;;;;;;;;5483707;26;8832;-74
2024/04/19 02:43:50;;;;;;;;;3.50;3.50;;;;;;;;5482011;26;8936;-74
2024/04/19 02:46:15;;;;;;;;;4.00;3.00;;;;;;;;5483767;26;8848;-74
2024/04/19 02:48:41;;;;;;;;;4.00;4.00;;;;;;;;5483725;26;8820;-74
2024/04/19 02:51:06;;;;;;;;;2.75;2.75;;;;;;;;5483840;26;8850;-74
2024/04/19 02:53:32;;;;;;;;;5.25;4.00;;;;;;;;5483544;26;8905;-75
2024/04/19 02:55:58;;;;;;;;;4.00;3.75;;;;;;;;5483091;26;9670;-75
2024/04/19 02:58:23;;;;;;;;;4.00;4.00;;;;;;;;5483473;26;11547;-74
2024/04/19 03:00:49;;;;;;;;;3.25;3.25;;;;;;;;5483866;26;8866;-74
2024/04/19 03:03:14;;;;;;;;;6.00;4.25;;;;;;;;5481030;26;8820;-75
2024/04/19 03:05:39;;;;;;;;;4.50;3.25;;;;;;;;5482308;26;8832;-75
2024/04/19 03:08:05;;;;;;;;;3.75;3.75;;;;;;;;5483037;26;8792;-74
2024/04/19 03:10:30;;;;;;;;;5.00;5.00;;;;;;;;5483611;26;9580;-74
2024/04/19 03:12:55;;;;;;;;;4.75;4.75;;;;;;;;5483456;26;8835;-75
2024/04/19 03:15:20;;;;;;;;;6.00;3.50;;;;;;;;5483385;26;8835;-74
2024/04/19 03:17:46;;;;;;;;;3.25;3.25;;;;;;;;5483495;26;8816;-74
2024/04/19 03:20:11;;;;;;;;;3.75;3.50;;;;;;;;5481759;26;8800;-74
2024/04/19 03:22:36;;;;;;;;;3.50;3.25;;;;;;;;5483768;26;9624;-74
2024/04/19 03:25:01;;;;;;;;;3.25;3.25;;;;;;;;5483049;26;8858;-74
2024/04/19 03:27:27;;;;;;;;;3.75;3.50;;;;;;;;5483380;26;8836;-75
2024/04/19 03:29:55;;;;;;;;;4.00;4.00;;;;;;;;5481699;26;8820;-73
2024/04/19 03:32:20;;;;;;;;;5.50;5.00;;;;;;;;5483283;26;8872;-74
2024/04/19 03:34:45;;;;;;;;;3.25;3.25;;;;;;;;5483141;26;11522;-73
2024/04/19 03:37:10;;;;;;;;;2.00;2.00;;;;;;;;5482602;26;8836;-74
2024/04/19 03:39:36;;;;;;;;;2.00;2.00;;;;;;;;5483591;26;8808;-73
2024/04/19 03:42:02;;;;;;;;;4.75;3.75;;;;;;;;5483012;26;8812;-73
2024/04/19 03:47:11;;;;;;;;;6.25;5.25;;;;;;;;5482738;26;11505;-73
2024/04/19 03:49:36;;;;;;;;;3.75;3.75;;;;;;;;5482287;26;11560;-73
2024/04/19 03:52:02;;;;;;;;;7.50;5.50;;;;;;;;5482539;26;8858;-74
2024/04/19 03:54:27;;;;;;;;;5.00;5.00;;;;;;;;5482116;26;8804;-74
2024/04/19 03:56:52;;;;;;;;;8.00;6.00;;;;;;;;5482055;26;8844;-74
2024/04/19 03:59:17;;;;;;;;;6.00;6.00;;;;;;;;5482733;26;8797;-73
2024/04/19 04:01:43;;;;;;;;;8.00;7.25;;;;;;;;5483414;26;8796;-73
2024/04/19 04:04:08;;;;;;;;;5.00;5.00;;;;;;;;5481086;26;9614;-74
2024/04/19 04:06:33;;;;;;;;;2.00;2.00;;;;;;;;5482625;26;8824;-73
2024/04/19 04:08:58;;;;;;;;;7.50;5.50;;;;;;;;5482588;26;8836;-73
2024/04/19 04:11:24;;;;;;;;;5.00;5.00;;;;;;;;5480456;26;8812;-73
2024/04/19 04:13:49;;;;;;;;;4.00;4.00;;;;;;;;5482498;26;8843;-73
2024/04/19 04:16:15;;;;;;;;;4.75;4.75;;;;;;;;5481897;26;8840;-74
2024/04/19 04:18:40;;;;;;;;;5.00;5.00;;;;;;;;5483026;26;8860;-74
2024/04/19 04:21:05;;;;;;;;;2.50;2.50;;;;;;;;5486648;26;9571;-74
2024/04/19 04:23:31;;;;;;;;;5.00;5.00;;;;;;;;5486713;26;8916;-78
2024/04/19 04:25:56;;;;;;;;;5.75;5.00;;;;;;;;5486367;26;8859;-79
2024/04/19 04:28:22;;;;;;;;;5.00;5.00;;;;;;;;5487032;26;8835;-75
2024/04/19 04:30:47;;;;;;;;;5.50;3.50;;;;;;;;5486833;26;8828;-77
2024/04/19 04:33:13;;;;;;;;;5.00;4.00;;;;;;;;5486104;26;8820;-76
2024/04/19 04:35:38;;;;;;;;;5.75;4.50;;;;;;;;5485529;26;8858;-76
2024/04/19 04:38:04;;;;;;;;;6.00;6.00;;;;;;;;5485819;26;9556;-76
2024/04/19 04:40:31;;;;;;;;;4.00;4.00;;;;;;;;5483535;26;9470;-76
2024/04/19 04:42:57;;;;;;;;;6.25;4.75;;;;;;;;5485832;26;8797;-78
2024/04/19 04:45:22;;;;;;;;;3.50;3.50;;;;;;;;5486645;26;11622;-79
2024/04/19 04:47:47;;;;;;;;;5.00;5.00;;;;;;;;5486214;26;8923;-76
2024/04/19 04:50:13;;;;;;;;;5.00;5.00;;;;;;;;5486024;26;8868;-73
2024/04/19 04:52:38;;;;;;;;;5.25;5.00;;;;;;;;5485613;26;8823;-72
2024/04/19 04:55:04;;;;;;;;;10.25;9.50;;;;;;;;5486676;26;8812;-73
2024/04/19 04:57:29;;;;;;;;;10.50;9.00;;;;;;;;5485933;26;8862;-73
2024/04/19 04:59:54;;;;;;;;;9.50;6.75;;;;;;;;5486252;26;11563;-72
2024/04/19 05:02:20;;;;;;;;;4.75;4.75;;;;;;;;5485751;26;8804;-72
2024/04/19 05:04:45;;;;;;;;;8.75;6.25;;;;;;;;5485987;26;9546;-71
2024/04/19 05:07:10;;;;;;;;;11.50;10.00;;;;;;;;5485138;26;8828;-70
2024/04/19 05:09:35;;;;;;;;;10.75;9.50;;;;;;;;5485623;26;8835;-72
2024/04/19 05:12:01;;;;;;;;;1.00;1.00;;;;;;;;5486318;26;8808;-72
2024/04/19 05:14:26;;;;;;;;;6.75;5.50;;;;;;;;5485269;26;8843;-74
2024/04/19 05:16:52;;;;;;;;;6.50;4.75;;;;;;;;5479357;26;8840;-72
2024/04/19 05:19:17;;;;;;;;;5.75;5.75;;;;;;;;5467981;26;8840;-74
2024/04/19 05:21:42;;;;;;;;;6.75;6.00;;;;;;;;5485408;26;8865;-73
2024/04/19 05:24:08;;;;;;;;;8.00;6.00;;;;;;;;5473984;26;8939;-73
2024/04/19 05:26:33;;;;;;;;;5.25;5.25;;;;;;;;5483090;26;8896;-72
2024/04/19 05:28:59;;;;;;;;;4.50;4.50;;;;;;;;5456197;20;11646;-76
2024/04/19 05:31:24;;;;;;;;;5.00;5.00;;;;;;;;5375101;26;8852;-74
2024/04/19 05:33:51;;;;;;;;;5.00;3.50;;;;;;;;5372972;26;8816;-71
2024/04/19 05:36:16;;;;;;;;;7.00;6.50;;;;;;;;5374750;26;8855;-73
2024/04/19 05:38:42;;;;;;;;;4.00;3.50;;;;;;;;5372289;26;11549;-71
2024/04/19 05:41:07;;;;;;;;;6.00;6.00;;;;;;;;5342325;26;8864;-75
2024/04/19 05:43:32;;;;;;;;;6.50;6.00;;;;;;;;5374852;26;8829;-71
2024/04/19 05:45:57;;;;;;;;;8.75;5.25;;;;;;;;5377424;26;8868;-72
2024/04/19 05:48:22;;;;;;;;;8.25;5.75;;;;;;;;5377262;26;8836;-72
2024/04/19 05:50:48;;;;;;;;;7.00;6.00;;;;;;;;5377432;26;8833;-75
2024/04/19 05:53:13;;;;;;;;;6.75;6.00;;;;;;;;5377976;26;8797;-77
2024/04/19 05:55:38;;;;;;;;;6.00;6.00;;;;;;;;5377480;26;8840;-74
2024/04/19 05:58:03;;;;;;;;;5.25;5.25;;;;;;;;5373025;26;8864;-74
2024/04/19 06:00:35;;;;;;;;;7.25;7.25;;;;;;;;5413423;26;8833;-71
2024/04/19 06:03:00;;;;;;;;;6.50;5.25;;;;;;;;5382605;26;8891;-71
2024/04/19 06:05:26;;;;;;;;;11.00;7.25;;;;;;;;5411445;26;11557;-71
2024/04/19 06:07:51;;;;;;;;;6.00;6.00;;;;;;;;5412697;26;8852;-70
2024/04/19 06:10:16;;;;;;;;;8.50;7.00;;;;;;;;5412337;26;8840;-68
2024/04/19 06:12:42;;;;;;;;;9.25;6.75;;;;;;;;5412327;26;8821;-70
2024/04/19 06:15:07;;;;;;;;;13.00;10.75;;;;;;;;5380930;26;8817;-70
2024/04/19 06:17:32;;;;;;;;;14.25;13.00;;;;;;;;5412428;26;8837;-70
2024/04/19 06:19:58;;;;;;;;;8.50;8.50;;;;;;;;5412360;26;8916;-70
2024/04/19 06:22:23;;;;;;;;;8.00;6.00;;;;;;;;5412594;26;8809;-68
2024/04/19 06:24:49;;;;;;;;;5.25;5.00;;;;;;;;5412642;26;8921;-69
2024/04/19 06:27:14;;;;;;;;;7.00;7.00;;;;;;;;5412776;26;8942;-70
2024/04/19 06:29:39;;;;;;;;;6.00;6.00;;;;;;;;5412882;26;8849;-71
2024/04/19 06:32:05;;;;;;;;;7.00;6.00;;;;;;;;5412508;26;8821;-72
2024/04/19 06:34:30;;;;;;;;;6.50;5.25;;;;;;;;5412262;26;8829;-72
2024/04/19 06:36:55;;;;;;;;;4.50;4.50;;;;;;;;5412035;26;9535;-71
2024/04/19 06:39:23;;;;;;;;;6.00;5.00;;;;;;;;5380614;26;8857;-72
2024/04/19 06:41:51;;;;;;;;;3.50;2.25;;;;;;;;5411331;26;8892;-72
2024/04/19 06:44:17;;;;;;;;;3.00;3.00;;;;;;;;5380659;26;11575;-72
2024/04/19 06:46:42;;;;;;;;;3.00;3.00;;;;;;;;5412339;26;11510;-72
2024/04/19 06:49:07;;;;;;;;;2.00;2.00;;;;;;;;5411894;26;8813;-72
2024/04/19 06:51:32;;;;;;;;;5.00;2.75;;;;;;;;5380623;26;8845;-71
2024/04/19 06:53:58;;;;;;;;;3.00;3.00;;;;;;;;5411717;26;8945;-72
2024/04/19 06:56:23;;;;;;;;;0.00;0.00;;;;;;;;5411866;26;8833;-72
2024/04/19 06:58:49;;;;;;;;;3.75;2.50;;;;;;;;5411732;26;8813;-71
2024/04/19 07:01:15;;;;;;;;;4.00;2.00;;;;;;;;5411745;26;9530;-71
2024/04/19 07:03:40;;;;;;;;;5.25;2.50;;;;;;;;5411644;26;11513;-71
2024/04/19 07:06:10;;;;;;;;;2.75;2.75;;;;;;;;5411203;26;8833;-72
2024/04/19 07:08:35;;;;;;;;;1.00;1.00;;;;;;;;5411575;26;8872;-72
2024/04/19 07:11:01;;;;;;;;;3.00;3.00;;;;;;;;5411973;26;11546;-72
2024/04/19 07:13:26;;;;;;;;;2.75;1.50;;;;;;;;5411932;26;8813;-72
2024/04/19 07:15:52;;;;;;;;;2.00;2.00;;;;;;;;5379912;26;8855;-71
2024/04/19 07:18:21;;;;;;;;;2.00;2.00;;;;;;;;5411460;26;8813;-70
2024/04/19 07:20:48;;;;;;;;;6.00;3.00;;;;;;;;5410859;26;8833;-71
2024/04/19 07:23:13;;;;;;;;;2.25;2.25;;;;;;;;5411119;26;12211;-71
2024/04/19 07:25:39;;;;;;;;;2.25;2.00;;;;;;;;5410975;26;11561;-72
2024/04/19 07:28:04;;;;;;;;;17.75;13.00;;;;;;;;5412056;26;8845;-71
2024/04/19 07:30:29;;;;;;;;;4.50;4.50;;;;;;;;5379624;26;8876;-71
2024/04/19 07:32:55;;;;;;;;;10.00;6.50;;;;;;;;5411559;26;8855;-71
2024/04/19 07:35:23;;;;;;;;;2.00;2.00;;;;;;;;5380052;26;8821;-72
2024/04/19 07:37:48;;;;;;;;;2.00;2.00;;;;;;;;5411135;26;8833;-70
2024/04/19 07:40:13;;;;;;;;;5.00;1.25;;;;;;;;5411457;26;11588;-75
2024/04/19 07:42:39;;;;;;;;;3.00;1.00;;;;;;;;5411230;26;8825;-70
2024/04/19 07:45:04;;;;;;;;;1.25;1.25;;;;;;;;5411414;26;8917;-70
2024/04/19 07:47:30;;;;;;;;;1.00;1.00;;;;;;;;5410317;26;8837;-69
2024/04/19 07:49:55;;;;;;;;;2.75;2.00;;;;;;;;5379597;26;8821;-68
2024/04/19 07:52:21;;;;;;;;;6.00;5.50;;;;;;;;5410948;26;8833;-69
2024/04/19 07:54:46;;;;;;;;;14.00;11.75;;;;;;;;5379266;26;8866;-72
2024/04/19 07:57:11;;;;;;;;;7.00;7.00;;;;;;;;5379396;26;9632;-70
2024/04/19 07:59:36;;;;;;;;;4.50;4.50;;;;;;;;5379125;26;8957;-70
2024/04/19 08:02:02;;;;;;;;;3.00;2.00;;;;;;;;5411361;26;8841;-69
2024/04/19 08:04:27;;;;;;;;;2.25;2.25;;;;;;;;5410952;26;8814;-70
2024/04/19 08:06:52;;;;;;;;;3.00;2.00;;;;;;;;5410500;26;8891;-70
2024/04/19 08:09:18;;;;;;;;;3.00;3.00;;;;;;;;5411003;26;8830;-71
2024/04/19 08:11:43;;;;;;;;;2.25;2.25;;;;;;;;5410593;26;8893;-69
2024/04/19 08:14:11;;;;;;;;;1.00;1.00;;;;;;;;5410703;26;8824;-69
2024/04/19 08:16:37;;;;;;;;;2.50;2.50;;;;;;;;5410658;26;8941;-70
2024/04/19 08:19:04;;;;;;;;;1.00;1.00;;;;;;;;5410596;26;11450;-69
2024/04/19 08:21:29;;;;;;;;;2.50;2.50;;;;;;;;5410425;26;8881;-69
2024/04/19 08:23:55;;;;;;;;;2.00;1.25;;;;;;;;5410376;26;11140;-69
2024/04/19 08:26:20;;;;;;;;;1.50;1.50;;;;;;;;5410307;26;9100;-70
2024/04/19 08:28:45;;;;;;;;;2.00;2.00;;;;;;;;5411049;26;8961;-69
2024/04/19 08:31:11;;;;;;;;;1.00;1.00;;;;;;;;5410691;26;8916;-70
2024/04/19 08:33:36;;;;;;;;;2.00;2.00;;;;;;;;5410084;26;9628;-69
2024/04/19 08:36:01;;;;;;;;;1.00;1.00;;;;;;;;5377793;26;8836;-69
2024/04/19 08:38:27;;;;;;;;;2.00;1.00;;;;;;;;5409852;26;8825;-69
2024/04/19 08:41:00;;;;;;;;;1.00;1.00;;;;;;;;5410123;26;8861;-69
2024/04/19 08:43:30;;;;;;;;;1.00;0.75;;;;;;;;5409919;26;10134;-69
2024/04/19 08:45:57;;;;;;;;;1.50;1.50;;;;;;;;5409887;26;9893;-68
2024/04/19 08:48:22;;;;;;;;;2.00;2.00;;;;;;;;5410182;26;9610;-69
2024/04/19 08:50:48;;;;;;;;;1.00;1.00;;;;;;;;5409923;26;9573;-69
2024/04/19 08:53:14;;;;;;;;;1.00;1.00;;;;;;;;5378415;26;8849;-68
2024/04/19 08:55:41;;;;;;;;;1.00;1.00;;;;;;;;5410148;26;8915;-69
2024/04/19 08:58:06;;;;;;;;;2.00;1.00;;;;;;;;5350659;26;8868;-69
2024/04/19 09:00:31;;;;;;;;;1.00;1.00;;;;;;;;5374686;26;8836;-70
2024/04/19 09:02:57;;;;;;;;;1.67;1.67;;;;;;;;5374522;26;8820;-69
2024/04/19 09:05:22;;;;;;;;;1.67;1.67;;;;;;;;5395450;26;9317;-69
2024/04/19 09:07:47;;;;;;;;;1.00;1.00;;;;;;;;5413457;26;8909;-69
2024/04/19 09:10:13;;;;;;;;;2.00;1.00;;;;;;;;5413159;26;8855;-69
2024/04/19 09:12:38;;;;;;;;;1.00;1.00;;;;;;;;5413128;26;8821;-69
2024/04/19 09:15:04;;;;;;;;;1.00;1.00;;;;;;;;5381789;26;8883;-69
2024/04/19 09:17:29;;;;;;;;;1.00;1.00;;;;;;;;5413108;26;8809;-69
2024/04/19 09:19:57;;;;;;;;;0.67;0.67;;;;;;;;5381973;26;8852;-69
2024/04/19 09:22:22;;;;;;;;;1.00;1.00;;;;;;;;5412981;26;8813;-69
2024/04/19 09:24:52;;;;;;;;;1.33;0.33;;;;;;;;5381776;26;8950;-69
2024/04/19 09:27:18;;;;;;;;;1.00;1.00;;;;;;;;5397213;26;8849;-69
2024/04/19 09:29:43;;;;;;;;;1.00;1.00;;;;;;;;5378017;26;9695;-69
2024/04/19 09:32:11;;;;;;;;;1.00;1.00;;;;;;;;5377690;26;8933;-69
2024/04/19 09:34:37;;;;;;;;;2.00;2.00;;;;;;;;5384528;26;8848;-69
2024/04/19 09:37:02;;;;;;;;;1.00;1.00;;;;;;;;5413181;26;8872;-69
2024/04/19 09:39:29;;;;;;;;;1.00;1.00;;;;;;;;5413310;26;8802;-69
2024/04/19 09:41:55;;;;;;;;;2.00;2.00;;;;;;;;5412610;26;8869;-69
2024/04/19 09:44:22;;;;;;;;;2.00;2.00;;;;;;;;5381007;26;8841;-69
2024/04/19 09:46:51;;;;;;;;;2.00;2.00;;;;;;;;5412909;26;8817;-69
2024/04/19 09:49:18;;;;;;;;;1.00;1.00;;;;;;;;5412391;26;8916;-69
2024/04/19 09:51:48;;;;;;;;;2.00;2.00;;;;;;;;5412813;26;8817;-69
2024/04/19 09:54:14;;;;;;;;;2.00;1.00;;;;;;;;5412045;26;8805;-69
2024/04/19 09:56:43;;;;;;;;;1.75;1.75;;;;;;;;5406128;26;8871;-69
2024/04/19 09:59:09;;;;;;;;;2.50;2.00;;;;;;;;5376949;26;9539;-69
2024/04/19 10:01:38;;;;;;;;;2.00;1.00;;;;;;;;5377449;26;8832;-69
2024/04/19 10:04:08;;;;;;;;;2.00;2.00;;;;;;;;5376753;26;8836;-69
2024/04/19 10:06:36;;;;;;;;;1.25;1.25;;;;;;;;5411769;26;9632;-67
2024/04/19 10:09:04;;;;;;;;;2.33;2.33;;;;;;;;5412654;26;8823;-68
2024/04/19 10:11:30;;;;;;;;;1.33;1.33;;;;;;;;5412696;26;9091;-68
2024/04/19 10:13:55;;;;;;;;;2.00;2.00;;;;;;;;5412884;26;8980;-68
2024/04/19 10:16:20;;;;;;;;;2.00;2.00;;;;;;;;5412754;26;8908;-69
2024/04/19 10:18:46;;;;;;;;;1.00;1.00;;;;;;;;5384505;26;8829;-68
2024/04/19 10:21:11;;;;;;;;;2.00;2.00;;;;;;;;5375077;26;9593;-68
2024/04/19 10:23:37;;;;;;;;;1.00;1.00;;;;;;;;5377296;26;8828;-68
2024/04/19 10:26:03;;;;;;;;;1.00;1.00;;;;;;;;5377029;26;8837;-69
2024/04/19 10:28:29;;;;;;;;;3.00;1.00;;;;;;;;5376587;26;9344;-68
2024/04/19 10:30:54;;;;;;;;;1.33;1.33;;;;;;;;5376285;26;8840;-68
2024/04/19 10:33:20;;;;;;;;;2.67;1.00;;;;;;;;5376868;26;9916;-68
2024/04/19 10:35:46;;;;;;;;;2.00;2.00;;;;;;;;5376445;26;8835;-68
2024/04/19 10:38:12;;;;;;;;;1.00;1.00;;;;;;;;5376532;26;8828;-68
2024/04/19 10:40:37;;;;;;;;;1.00;1.00;;;;;;;;5345749;26;10161;-67
2024/04/19 10:43:03;;;;;;;;;2.50;1.00;;;;;;;;5376694;26;8911;-67
2024/04/19 10:45:31;;;;;;;;;1.75;1.75;;;;;;;;5376810;26;8820;-68
2024/04/19 10:47:57;;;;;;;;;1.00;1.00;;;;;;;;5392082;26;9524;-68
2024/04/19 10:50:23;;;;;;;;;0.00;0.00;;;;;;;;5411910;26;9874;-68
2024/04/19 10:52:50;;;;;;;;;1.50;1.00;;;;;;;;5412155;26;8833;-68
2024/04/19 10:55:15;;;;;;;;;1.00;1.00;;;;;;;;5412283;26;8922;-68
2024/04/19 10:57:41;;;;;;;;;1.25;1.25;;;;;;;;5390347;26;9951;-68
2024/04/19 11:00:07;;;;;;;;;1.00;1.00;;;;;;;;5376232;26;8833;-68
2024/04/19 11:02:33;;;;;;;;;1.00;1.00;;;;;;;;5376131;26;8867;-68
2024/04/19 11:05:00;;;;;;;;;2.00;1.00;;;;;;;;5375772;26;9885;-68
2024/04/19 11:07:26;;;;;;;;;1.00;1.00;;;;;;;;5376373;26;9854;-71
2024/04/19 11:09:51;;;;;;;;;1.00;1.00;;;;;;;;5375829;26;10000;-68
2024/04/19 11:12:16;;;;;;;;;2.00;1.00;;;;;;;;5376081;26;8832;-68
2024/04/19 11:14:42;;;;;;;;;1.00;1.00;;;;;;;;5376719;26;8829;-67
2024/04/19 11:17:07;;;;;;;;;1.00;1.00;;;;;;;;5379827;26;8824;-71
2024/04/19 11:19:34;;;;;;;;;2.00;2.00;;;;;;;;5380295;26;9640;-70
2024/04/19 11:21:59;;;;;;;;;4.00;4.00;;;;;;;;5387751;26;8829;-71
2024/04/19 11:24:25;;;;;;;;;1.75;1.75;;;;;;;;5344632;26;10422;-71
2024/04/19 11:26:51;;;;;;;;;1.00;1.00;;;;;;;;5344017;26;9630;-69
2024/04/19 11:29:17;;;;;;;;;2.00;1.00;;;;;;;;5375600;26;8965;-70
2024/04/19 11:31:45;;;;;;;;;2.50;1.50;;;;;;;;5343963;26;10235;-70
2024/04/19 11:34:10;;;;;;;;;1.00;1.00;;;;;;;;5339856;26;8828;-69
2024/04/19 11:36:35;;;;;;;;;1.00;1.00;;;;;;;;5344683;26;10185;-69
2024/04/19 11:39:01;;;;;;;;;1.25;1.00;;;;;;;;5375545;26;8836;-69
2024/04/19 11:41:26;;;;;;;;;1.25;1.00;;;;;;;;5344974;26;8908;-68
2024/04/19 11:43:52;;;;;;;;;0.75;0.75;;;;;;;;5375957;26;8833;-69
2024/04/19 11:46:28;;;;;;;;;1.00;1.00;;;;;;;;5344636;26;8837;-70
2024/04/19 11:48:53;;;;;;;;;1.00;1.00;;;;;;;;5345819;26;8848;-71
2024/04/19 11:51:19;;;;;;;;;1.00;1.00;;;;;;;;5377764;26;10945;-71
2024/04/19 11:53:44;;;;;;;;;0.25;0.25;;;;;;;;5376159;26;8875;-74
2024/04/19 11:56:09;;;;;;;;;1.00;1.00;;;;;;;;5341481;26;8836;-70
2024/04/19 11:58:35;;;;;;;;;1.00;1.00;;;;;;;;5375021;26;8820;-71
2024/04/19 12:01:00;;;;;;;;;1.00;1.00;;;;;;;;5345125;26;8852;-70
2024/04/19 12:03:26;;;;;;;;;1.00;1.00;;;;;;;;5375271;26;8832;-69
2024/04/19 12:05:52;;;;;;;;;1.00;1.00;;;;;;;;5375382;26;8932;-69
2024/04/19 12:08:17;;;;;;;;;1.25;1.25;;;;;;;;5344163;26;8943;-69
2024/04/19 12:10:43;;;;;;;;;1.00;1.00;;;;;;;;5375264;26;10410;-69
2024/04/19 12:13:09;;;;;;;;;1.00;1.00;;;;;;;;5375137;26;9132;-69
2024/04/19 12:15:34;;;;;;;;;1.50;1.25;;;;;;;;5374948;26;9623;-70
2024/04/19 12:18:00;;;;;;;;;1.00;1.00;;;;;;;;5343986;26;10596;-70
2024/04/19 12:20:26;;;;;;;;;1.00;1.00;;;;;;;;5374855;26;8857;-69
2024/04/19 12:22:51;;;;;;;;;2.00;2.00;;;;;;;;5374616;26;8828;-68
2024/04/19 12:25:17;;;;;;;;;2.00;2.00;;;;;;;;5375102;26;9642;-70
2024/04/19 12:27:42;;;;;;;;;2.00;2.00;;;;;;;;5374965;26;8844;-70
2024/04/19 12:30:07;;;;;;;;;1.75;1.75;;;;;;;;5374784;26;8844;-70
2024/04/19 12:32:33;;;;;;;;;1.75;1.00;;;;;;;;5374406;26;8860;-70
2024/04/19 12:34:58;;;;;;;;;2.00;2.00;;;;;;;;5338808;26;8836;-73
2024/04/19 12:37:23;;;;;;;;;1.25;1.25;;;;;;;;5374724;26;8809;-72
2024/04/19 12:39:49;;;;;;;;;3.00;2.00;;;;;;;;5360059;26;8860;-72
2024/04/19 12:42:14;;;;;;;;;2.50;1.00;;;;;;;;5377858;26;8828;-71
2024/04/19 12:44:47;;;;;;;;;1.75;1.75;;;;;;;;5378204;26;8840;-71
2024/04/19 12:47:12;;;;;;;;;1.00;1.00;;;;;;;;5373694;26;8861;-71
2024/04/19 12:49:38;;;;;;;;;1.00;1.00;;;;;;;;5377697;26;10704;-70
2024/04/19 12:52:03;;;;;;;;;2.50;2.50;;;;;;;;5377897;26;8836;-71
2024/04/19 12:54:29;;;;;;;;;2.00;2.00;;;;;;;;5347303;26;9057;-70
2024/04/19 12:56:54;;;;;;;;;3.50;2.00;;;;;;;;5378509;26;9105;-68
2024/04/19 12:59:20;;;;;;;;;1.75;1.75;;;;;;;;5376415;26;8851;-71
2024/04/19 13:01:45;;;;;;;;;1.00;1.00;;;;;;;;5377701;26;8868;-71
2024/04/19 13:04:10;;;;;;;;;2.00;1.00;;;;;;;;5372783;26;8856;-72
2024/04/19 13:06:35;;;;;;;;;1.25;1.25;;;;;;;;5377566;26;8824;-71
2024/04/19 13:09:02;;;;;;;;;1.25;1.25;;;;;;;;5378293;26;8864;-71
2024/04/19 13:11:27;;;;;;;;;2.00;2.00;;;;;;;;5361560;26;9720;-71
2024/04/19 13:13:54;;;;;;;;;1.00;1.00;;;;;;;;5377593;26;10705;-71
2024/04/19 13:16:20;;;;;;;;;1.00;1.00;;;;;;;;5377145;26;8832;-71
2024/04/19 13:18:46;;;;;;;;;1.00;1.00;;;;;;;;5347265;26;11109;-71
2024/04/19 13:21:11;;;;;;;;;3.00;3.00;;;;;;;;5377755;26;10862;-71
2024/04/19 13:23:36;;;;;;;;;1.75;1.75;;;;;;;;5377685;26;8845;-71
2024/04/19 13:26:02;;;;;;;;;3.00;1.25;;;;;;;;5377657;26;8924;-71
2024/04/19 13:28:27;;;;;;;;;1.25;1.25;;;;;;;;5376519;26;9628;-72
2024/04/19 13:30:53;;;;;;;;;2.00;2.00;;;;;;;;5376677;26;8879;-71
2024/04/19 13:33:18;;;;;;;;;5.75;4.50;;;;;;;;5376964;26;8907;-71
2024/04/19 13:35:44;;;;;;;;;2.00;2.00;;;;;;;;5377988;26;8845;-72
2024/04/19 13:38:10;;;;;;;;;2.50;2.50;;;;;;;;5377056;26;8816;-72
2024/04/19 13:40:35;;;;;;;;;1.25;1.25;;;;;;;;5377472;26;10888;-72
2024/04/19 13:43:00;;;;;;;;;2.00;2.00;;;;;;;;5346391;26;8812;-71
2024/04/19 13:45:26;;;;;;;;;2.50;2.50;;;;;;;;5377742;26;8847;-72
2024/04/19 13:47:52;;;;;;;;;2.00;2.00;;;;;;;;5392520;26;9604;-72
2024/04/19 13:50:17;;;;;;;;;2.00;2.00;;;;;;;;5412840;26;8805;-70
2024/04/19 13:52:43;;;;;;;;;2.50;2.50;;;;;;;;5413783;26;8837;-70
2024/04/19 13:55:17;;;;;;;;;2.00;1.75;;;;;;;;5413772;26;8856;-71
2024/04/19 13:57:46;;;;;;;;;1.00;1.00;;;;;;;;5392658;26;8851;-72
2024/04/19 14:00:29;;;;;;;;;2.00;2.00;;;;;;;;5378419;26;10796;-72
2024/04/19 14:02:54;;;;;;;;;2.00;2.00;;;;;;;;5377979;26;10917;-71
2024/04/19 14:05:19;;;;;;;;;1.00;0.00;;;;;;;;5377028;26;10851;-72
2024/04/19 14:07:45;;;;;;;;;1.00;1.00;;;;;;;;5376933;26;8938;-72
2024/04/19 14:10:10;;;;;;;;;2.00;2.00;;;;;;;;5345850;26;8931;-73
2024/04/19 14:12:40;;;;;;;;;1.00;1.00;;;;;;;;5378752;26;8821;-72
2024/04/19 14:15:14;;;;;;;;;1.75;1.75;;;;;;;;5347745;26;8919;-72
2024/04/19 14:17:39;;;;;;;;;1.00;1.00;;;;;;;;5381707;26;11052;-72
2024/04/19 14:20:04;;;;;;;;;1.50;1.50;;;;;;;;5377298;26;10871;-71
2024/04/19 14:22:32;;;;;;;;;2.00;2.00;;;;;;;;5377556;26;8827;-72
2024/04/19 14:24:58;;;;;;;;;1.75;1.75;;;;;;;;5376725;26;8816;-71
2024/04/19 14:27:24;;;;;;;;;1.00;1.00;;;;;;;;5345004;26;11541;-68
2024/04/19 14:29:50;;;;;;;;;0.50;0.50;;;;;;;;5404172;21;8836;-66
2024/04/19 14:32:16;;;;;;;;;0.00;0.00;;;;;;;;5413141;26;8812;-67
2024/04/19 14:34:41;;;;;;;;;1.50;1.50;;;;;;;;5411987;26;10598;-68
2024/04/19 14:37:06;;;;;;;;;1.50;1.50;;;;;;;;5411479;26;9590;-68
2024/04/19 14:39:31;;;;;;;;;0.00;0.00;;;;;;;;5411834;26;8941;-67
2024/04/19 14:41:57;;;;;;;;;6.50;6.50;;;;;;;;5412970;26;9458;-71
2024/04/19 14:44:22;;;;;;;;;2.25;1.00;;;;;;;;5411792;26;8866;-74
2024/04/19 14:46:47;;;;;;;;;2.00;2.00;;;;;;;;5411935;26;8820;-72
2024/04/19 14:49:12;;;;;;;;;1.25;1.25;;;;;;;;5406093;26;8878;-73
2024/04/19 14:51:38;;;;;;;;;1.00;1.00;;;;;;;;5412097;26;8870;-74